sensor_id;sensor_type;location;lat;lon;timestamp;P1;durP1;ratioP1;P2;durP2;ratioP2
11970;SDS011;6045;42.682;23.294;2023-06-22T00:00:11;5.85;;;4.90;;
11970;SDS011;6045;42.682;23.294;2023-06-22T00:02:38;6.07;;;4.72;;
11970;SDS011;6045;42.682;23.294;2023-06-22T00:05:05;5.78;;;4.30;;
11970;SDS011;6045;42.682;23.294;2023-06-22T00:07:32;5.93;;;4.30;;
11970;SDS011;6045;42.682;23.294;2023-06-22T00:09:59;8.40;;;5.00;;
11970;SDS011;6045;42.682;23.294;2023-06-22T00:12:25;7.40;;;5.10;;
11970;SDS011;6045;42.682;23.294;2023-06-22T00:14:52;12.38;;;5.32;;
11970;SDS011;6045;42.682;23.294;2023-06-22T00:17:20;7.72;;;4.72;;
11970;SDS011;6045;42.682;23.294;2023-06-22T00:19:47;6.32;;;4.78;;
11970;SDS011;6045;42.682;23.294;2023-06-22T00:22:18;5.97;;;5.15;;
11970;SDS011;6045;42.682;23.294;2023-06-22T00:24:53;7.57;;;5.35;;
11970;SDS011;6045;42.682;23.294;2023-06-22T00:27:20;6.90;;;4.78;;
11970;SDS011;6045;42.682;23.294;2023-06-22T00:29:47;8.32;;;5.60;;
11970;SDS011;6045;42.682;23.294;2023-06-22T00:32:14;7.50;;;5.47;;
11970;SDS011;6045;42.682;23.294;2023-06-22T00:34:43;7.53;;;5.32;;
11970;SDS011;6045;42.682;23.294;2023-06-22T00:37:10;7.55;;;5.57;;
11970;SDS011;6045;42.682;23.294;2023-06-22T00:39:37;6.25;;;4.65;;
11970;SDS011;6045;42.682;23.294;2023-06-22T00:42:04;7.45;;;5.05;;
11970;SDS011;6045;42.682;23.294;2023-06-22T00:44:31;8.85;;;5.30;;
11970;SDS011;6045;42.682;23.294;2023-06-22T00:46:58;8.38;;;5.32;;
11970;SDS011;6045;42.682;23.294;2023-06-22T00:49:26;8.25;;;5.28;;
11970;SDS011;6045;42.682;23.294;2023-06-22T00:51:54;7.47;;;5.15;;
11970;SDS011;6045;42.682;23.294;2023-06-22T00:54:22;5.22;;;4.60;;
11970;SDS011;6045;42.682;23.294;2023-06-22T00:56:49;5.45;;;4.70;;
11970;SDS011;6045;42.682;23.294;2023-06-22T00:59:19;7.97;;;5.32;;
11970;SDS011;6045;42.682;23.294;2023-06-22T01:01:46;7.03;;;5.35;;
11970;SDS011;6045;42.682;23.294;2023-06-22T01:04:13;7.47;;;5.05;;
11970;SDS011;6045;42.682;23.294;2023-06-22T01:06:44;6.25;;;4.78;;
11970;SDS011;6045;42.682;23.294;2023-06-22T01:09:24;6.28;;;4.60;;
11970;SDS011;6045;42.682;23.294;2023-06-22T01:11:58;8.65;;;5.53;;
11970;SDS011;6045;42.682;23.294;2023-06-22T01:14:31;8.43;;;5.70;;
11970;SDS011;6045;42.682;23.294;2023-06-22T01:17:04;6.63;;;4.80;;
11970;SDS011;6045;42.682;23.294;2023-06-22T01:19:38;7.95;;;5.68;;
11970;SDS011;6045;42.682;23.294;2023-06-22T01:22:10;7.15;;;5.63;;
11970;SDS011;6045;42.682;23.294;2023-06-22T01:24:45;8.23;;;5.85;;
11970;SDS011;6045;42.682;23.294;2023-06-22T01:27:28;8.07;;;5.80;;
11970;SDS011;6045;42.682;23.294;2023-06-22T01:30:08;6.75;;;5.47;;
11970;SDS011;6045;42.682;23.294;2023-06-22T01:32:37;7.35;;;5.07;;
11970;SDS011;6045;42.682;23.294;2023-06-22T01:35:05;8.30;;;5.32;;
11970;SDS011;6045;42.682;23.294;2023-06-22T01:37:35;6.97;;;5.28;;
11970;SDS011;6045;42.682;23.294;2023-06-22T01:40:03;8.75;;;4.93;;
11970;SDS011;6045;42.682;23.294;2023-06-22T01:42:31;5.85;;;4.93;;
11970;SDS011;6045;42.682;23.294;2023-06-22T01:44:58;7.55;;;5.32;;
11970;SDS011;6045;42.682;23.294;2023-06-22T01:47:27;7.53;;;4.93;;
11970;SDS011;6045;42.682;23.294;2023-06-22T01:49:54;8.05;;;4.70;;
11970;SDS011;6045;42.682;23.294;2023-06-22T01:52:22;7.72;;;4.88;;
11970;SDS011;6045;42.682;23.294;2023-06-22T01:54:48;7.45;;;5.18;;
11970;SDS011;6045;42.682;23.294;2023-06-22T01:57:15;5.45;;;4.85;;
11970;SDS011;6045;42.682;23.294;2023-06-22T01:59:45;6.35;;;5.00;;
11970;SDS011;6045;42.682;23.294;2023-06-22T02:02:19;7.75;;;5.20;;
11970;SDS011;6045;42.682;23.294;2023-06-22T02:04:56;7.07;;;5.47;;
11970;SDS011;6045;42.682;23.294;2023-06-22T02:07:27;7.25;;;4.72;;
11970;SDS011;6045;42.682;23.294;2023-06-22T02:09:57;8.18;;;5.53;;
11970;SDS011;6045;42.682;23.294;2023-06-22T02:12:25;7.88;;;5.22;;
11970;SDS011;6045;42.682;23.294;2023-06-22T02:14:54;6.38;;;4.60;;
11970;SDS011;6045;42.682;23.294;2023-06-22T02:17:21;8.20;;;5.43;;
11970;SDS011;6045;42.682;23.294;2023-06-22T02:19:49;7.63;;;4.75;;
11970;SDS011;6045;42.682;23.294;2023-06-22T02:22:17;7.15;;;4.93;;
11970;SDS011;6045;42.682;23.294;2023-06-22T02:24:44;8.50;;;5.55;;
11970;SDS011;6045;42.682;23.294;2023-06-22T02:27:11;8.50;;;5.22;;
11970;SDS011;6045;42.682;23.294;2023-06-22T02:29:38;6.40;;;4.80;;
11970;SDS011;6045;42.682;23.294;2023-06-22T02:32:05;8.20;;;4.68;;
11970;SDS011;6045;42.682;23.294;2023-06-22T02:34:32;7.18;;;4.97;;
11970;SDS011;6045;42.682;23.294;2023-06-22T02:36:59;8.13;;;4.80;;
11970;SDS011;6045;42.682;23.294;2023-06-22T02:39:29;6.13;;;4.55;;
11970;SDS011;6045;42.682;23.294;2023-06-22T02:41:55;9.60;;;4.50;;
11970;SDS011;6045;42.682;23.294;2023-06-22T02:44:22;6.95;;;4.90;;
11970;SDS011;6045;42.682;23.294;2023-06-22T02:46:49;7.38;;;4.72;;
11970;SDS011;6045;42.682;23.294;2023-06-22T02:49:16;8.85;;;5.45;;
11970;SDS011;6045;42.682;23.294;2023-06-22T02:51:45;6.80;;;4.93;;
11970;SDS011;6045;42.682;23.294;2023-06-22T02:54:12;6.07;;;4.65;;
11970;SDS011;6045;42.682;23.294;2023-06-22T02:56:40;6.07;;;3.92;;
11970;SDS011;6045;42.682;23.294;2023-06-22T02:59:08;5.60;;;4.88;;
11970;SDS011;6045;42.682;23.294;2023-06-22T03:01:36;5.85;;;4.57;;
11970;SDS011;6045;42.682;23.294;2023-06-22T03:04:05;6.30;;;4.38;;
11970;SDS011;6045;42.682;23.294;2023-06-22T03:06:32;6.43;;;4.97;;
11970;SDS011;6045;42.682;23.294;2023-06-22T03:08:59;5.88;;;4.45;;
11970;SDS011;6045;42.682;23.294;2023-06-22T03:11:28;6.55;;;5.03;;
11970;SDS011;6045;42.682;23.294;2023-06-22T03:13:57;7.45;;;4.53;;
11970;SDS011;6045;42.682;23.294;2023-06-22T03:16:24;7.22;;;4.97;;
11970;SDS011;6045;42.682;23.294;2023-06-22T03:18:50;8.32;;;4.93;;
11970;SDS011;6045;42.682;23.294;2023-06-22T03:21:18;6.68;;;5.05;;
11970;SDS011;6045;42.682;23.294;2023-06-22T03:23:45;8.13;;;5.15;;
11970;SDS011;6045;42.682;23.294;2023-06-22T03:26:12;8.90;;;5.20;;
11970;SDS011;6045;42.682;23.294;2023-06-22T03:28:39;8.80;;;5.43;;
11970;SDS011;6045;42.682;23.294;2023-06-22T03:31:07;6.70;;;5.70;;
11970;SDS011;6045;42.682;23.294;2023-06-22T03:33:34;8.02;;;6.15;;
11970;SDS011;6045;42.682;23.294;2023-06-22T03:36:01;9.57;;;5.97;;
11970;SDS011;6045;42.682;23.294;2023-06-22T03:38:29;7.50;;;5.80;;
11970;SDS011;6045;42.682;23.294;2023-06-22T03:40:56;8.23;;;5.65;;
11970;SDS011;6045;42.682;23.294;2023-06-22T03:43:22;10.70;;;6.60;;
11970;SDS011;6045;42.682;23.294;2023-06-22T03:45:49;7.75;;;5.78;;
11970;SDS011;6045;42.682;23.294;2023-06-22T03:48:17;7.63;;;5.85;;
11970;SDS011;6045;42.682;23.294;2023-06-22T03:50:44;7.28;;;5.90;;
11970;SDS011;6045;42.682;23.294;2023-06-22T03:53:11;9.30;;;5.93;;
11970;SDS011;6045;42.682;23.294;2023-06-22T03:55:47;8.43;;;5.72;;
11970;SDS011;6045;42.682;23.294;2023-06-22T03:58:16;8.00;;;6.05;;
11970;SDS011;6045;42.682;23.294;2023-06-22T04:00:44;6.70;;;5.40;;
11970;SDS011;6045;42.682;23.294;2023-06-22T04:03:11;6.72;;;5.38;;
11970;SDS011;6045;42.682;23.294;2023-06-22T04:05:40;7.50;;;5.78;;
11970;SDS011;6045;42.682;23.294;2023-06-22T04:08:07;7.18;;;5.68;;
11970;SDS011;6045;42.682;23.294;2023-06-22T04:10:34;6.85;;;5.50;;
11970;SDS011;6045;42.682;23.294;2023-06-22T04:13:00;5.68;;;4.88;;
11970;SDS011;6045;42.682;23.294;2023-06-22T04:15:27;7.97;;;5.68;;
11970;SDS011;6045;42.682;23.294;2023-06-22T04:17:54;8.68;;;5.60;;
11970;SDS011;6045;42.682;23.294;2023-06-22T04:20:21;8.73;;;6.53;;
11970;SDS011;6045;42.682;23.294;2023-06-22T04:22:52;8.00;;;6.03;;
11970;SDS011;6045;42.682;23.294;2023-06-22T04:25:19;9.18;;;6.30;;
11970;SDS011;6045;42.682;23.294;2023-06-22T04:27:46;8.82;;;6.32;;
11970;SDS011;6045;42.682;23.294;2023-06-22T04:30:13;8.65;;;6.07;;
11970;SDS011;6045;42.682;23.294;2023-06-22T04:32:42;9.43;;;5.68;;
11970;SDS011;6045;42.682;23.294;2023-06-22T04:35:09;8.63;;;5.72;;
11970;SDS011;6045;42.682;23.294;2023-06-22T04:37:36;9.07;;;6.15;;
11970;SDS011;6045;42.682;23.294;2023-06-22T04:40:06;9.27;;;6.05;;
11970;SDS011;6045;42.682;23.294;2023-06-22T04:42:34;6.85;;;5.70;;
11970;SDS011;6045;42.682;23.294;2023-06-22T04:45:01;8.98;;;7.10;;
11970;SDS011;6045;42.682;23.294;2023-06-22T04:47:28;7.70;;;5.90;;
11970;SDS011;6045;42.682;23.294;2023-06-22T04:49:55;9.82;;;6.75;;
11970;SDS011;6045;42.682;23.294;2023-06-22T04:52:21;9.15;;;7.03;;
11970;SDS011;6045;42.682;23.294;2023-06-22T04:54:49;11.32;;;6.13;;
11970;SDS011;6045;42.682;23.294;2023-06-22T04:57:22;8.73;;;6.25;;
11970;SDS011;6045;42.682;23.294;2023-06-22T04:59:55;6.30;;;5.43;;
11970;SDS011;6045;42.682;23.294;2023-06-22T05:02:22;6.68;;;5.25;;
11970;SDS011;6045;42.682;23.294;2023-06-22T05:04:57;7.53;;;5.40;;
11970;SDS011;6045;42.682;23.294;2023-06-22T05:07:23;8.98;;;6.00;;
11970;SDS011;6045;42.682;23.294;2023-06-22T05:09:50;9.85;;;6.47;;
11970;SDS011;6045;42.682;23.294;2023-06-22T05:12:17;8.63;;;6.40;;
11970;SDS011;6045;42.682;23.294;2023-06-22T05:14:45;8.60;;;6.18;;
11970;SDS011;6045;42.682;23.294;2023-06-22T05:17:12;8.20;;;6.45;;
11970;SDS011;6045;42.682;23.294;2023-06-22T05:19:39;9.88;;;6.72;;
11970;SDS011;6045;42.682;23.294;2023-06-22T05:22:13;13.15;;;8.82;;
11970;SDS011;6045;42.682;23.294;2023-06-22T05:24:40;13.55;;;8.35;;
11970;SDS011;6045;42.682;23.294;2023-06-22T05:27:07;7.78;;;6.32;;
11970;SDS011;6045;42.682;23.294;2023-06-22T05:29:34;13.38;;;7.38;;
11970;SDS011;6045;42.682;23.294;2023-06-22T05:32:02;8.98;;;6.43;;
11970;SDS011;6045;42.682;23.294;2023-06-22T05:34:30;7.65;;;6.18;;
11970;SDS011;6045;42.682;23.294;2023-06-22T05:36:56;11.48;;;8.15;;
11970;SDS011;6045;42.682;23.294;2023-06-22T05:39:24;10.27;;;6.70;;
11970;SDS011;6045;42.682;23.294;2023-06-22T05:41:51;7.75;;;6.00;;
11970;SDS011;6045;42.682;23.294;2023-06-22T05:44:18;7.72;;;6.35;;
11970;SDS011;6045;42.682;23.294;2023-06-22T05:46:45;9.50;;;6.38;;
11970;SDS011;6045;42.682;23.294;2023-06-22T05:49:14;13.10;;;7.35;;
11970;SDS011;6045;42.682;23.294;2023-06-22T05:51:41;10.52;;;7.60;;
11970;SDS011;6045;42.682;23.294;2023-06-22T05:54:08;10.10;;;6.38;;
11970;SDS011;6045;42.682;23.294;2023-06-22T05:56:35;9.40;;;7.55;;
11970;SDS011;6045;42.682;23.294;2023-06-22T05:59:05;8.65;;;7.35;;
11970;SDS011;6045;42.682;23.294;2023-06-22T06:01:32;9.95;;;7.38;;
11970;SDS011;6045;42.682;23.294;2023-06-22T06:04:01;10.27;;;7.57;;
11970;SDS011;6045;42.682;23.294;2023-06-22T06:06:34;13.48;;;7.82;;
11970;SDS011;6045;42.682;23.294;2023-06-22T06:09:02;14.50;;;7.93;;
11970;SDS011;6045;42.682;23.294;2023-06-22T06:11:29;9.65;;;7.43;;
11970;SDS011;6045;42.682;23.294;2023-06-22T06:13:56;8.13;;;7.28;;
11970;SDS011;6045;42.682;23.294;2023-06-22T06:16:23;12.20;;;7.75;;
11970;SDS011;6045;42.682;23.294;2023-06-22T06:18:49;10.30;;;8.02;;
11970;SDS011;6045;42.682;23.294;2023-06-22T06:21:18;10.95;;;6.82;;
11970;SDS011;6045;42.682;23.294;2023-06-22T06:23:46;10.40;;;6.97;;
11970;SDS011;6045;42.682;23.294;2023-06-22T06:26:13;9.32;;;6.90;;
11970;SDS011;6045;42.682;23.294;2023-06-22T06:28:41;8.73;;;6.40;;
11970;SDS011;6045;42.682;23.294;2023-06-22T06:31:08;8.23;;;6.63;;
11970;SDS011;6045;42.682;23.294;2023-06-22T06:33:37;10.18;;;6.55;;
11970;SDS011;6045;42.682;23.294;2023-06-22T06:36:04;10.38;;;7.55;;
11970;SDS011;6045;42.682;23.294;2023-06-22T06:38:31;10.50;;;7.75;;
11970;SDS011;6045;42.682;23.294;2023-06-22T06:40:59;12.40;;;7.88;;
11970;SDS011;6045;42.682;23.294;2023-06-22T06:43:26;11.25;;;7.82;;
11970;SDS011;6045;42.682;23.294;2023-06-22T06:45:52;10.63;;;7.35;;
11970;SDS011;6045;42.682;23.294;2023-06-22T06:48:19;10.60;;;7.03;;
11970;SDS011;6045;42.682;23.294;2023-06-22T06:50:46;9.90;;;7.55;;
11970;SDS011;6045;42.682;23.294;2023-06-22T06:53:13;10.95;;;7.32;;
11970;SDS011;6045;42.682;23.294;2023-06-22T06:55:40;10.23;;;7.68;;
11970;SDS011;6045;42.682;23.294;2023-06-22T06:58:08;9.02;;;7.07;;
11970;SDS011;6045;42.682;23.294;2023-06-22T07:00:37;9.73;;;7.32;;
11970;SDS011;6045;42.682;23.294;2023-06-22T07:03:03;8.48;;;6.45;;
11970;SDS011;6045;42.682;23.294;2023-06-22T07:05:32;9.80;;;7.35;;
11970;SDS011;6045;42.682;23.294;2023-06-22T07:07:58;8.25;;;6.70;;
11970;SDS011;6045;42.682;23.294;2023-06-22T07:10:25;7.82;;;6.25;;
11970;SDS011;6045;42.682;23.294;2023-06-22T07:12:52;9.20;;;6.80;;
11970;SDS011;6045;42.682;23.294;2023-06-22T07:15:20;7.35;;;6.43;;
11970;SDS011;6045;42.682;23.294;2023-06-22T07:17:47;10.95;;;5.95;;
11970;SDS011;6045;42.682;23.294;2023-06-22T07:20:14;8.25;;;5.95;;
11970;SDS011;6045;42.682;23.294;2023-06-22T07:22:41;7.90;;;6.30;;
11970;SDS011;6045;42.682;23.294;2023-06-22T07:25:09;8.38;;;6.45;;
11970;SDS011;6045;42.682;23.294;2023-06-22T07:27:39;10.40;;;6.53;;
11970;SDS011;6045;42.682;23.294;2023-06-22T07:30:10;8.63;;;6.82;;
11970;SDS011;6045;42.682;23.294;2023-06-22T07:32:40;8.52;;;6.70;;
11970;SDS011;6045;42.682;23.294;2023-06-22T07:35:07;9.60;;;7.22;;
11970;SDS011;6045;42.682;23.294;2023-06-22T07:37:35;10.45;;;6.10;;
11970;SDS011;6045;42.682;23.294;2023-06-22T07:40:02;8.30;;;6.55;;
11970;SDS011;6045;42.682;23.294;2023-06-22T07:42:31;6.35;;;5.63;;
11970;SDS011;6045;42.682;23.294;2023-06-22T07:44:59;7.85;;;6.38;;
11970;SDS011;6045;42.682;23.294;2023-06-22T07:47:25;9.55;;;6.70;;
11970;SDS011;6045;42.682;23.294;2023-06-22T07:49:54;9.10;;;6.65;;
11970;SDS011;6045;42.682;23.294;2023-06-22T07:52:23;9.05;;;6.68;;
11970;SDS011;6045;42.682;23.294;2023-06-22T07:54:50;8.25;;;6.70;;
11970;SDS011;6045;42.682;23.294;2023-06-22T07:57:17;9.77;;;6.65;;
11970;SDS011;6045;42.682;23.294;2023-06-22T07:59:44;7.50;;;6.80;;
11970;SDS011;6045;42.682;23.294;2023-06-22T08:02:11;8.93;;;7.18;;
11970;SDS011;6045;42.682;23.294;2023-06-22T08:04:38;9.38;;;6.80;;
11970;SDS011;6045;42.682;23.294;2023-06-22T08:07:07;8.88;;;6.57;;
11970;SDS011;6045;42.682;23.294;2023-06-22T08:09:34;7.63;;;6.82;;
11970;SDS011;6045;42.682;23.294;2023-06-22T08:12:02;7.50;;;6.00;;
11970;SDS011;6045;42.682;23.294;2023-06-22T08:14:29;11.38;;;7.20;;
11970;SDS011;6045;42.682;23.294;2023-06-22T08:16:56;7.15;;;6.35;;
11970;SDS011;6045;42.682;23.294;2023-06-22T08:19:23;6.97;;;6.28;;
11970;SDS011;6045;42.682;23.294;2023-06-22T08:21:49;7.78;;;6.90;;
11970;SDS011;6045;42.682;23.294;2023-06-22T08:24:17;7.97;;;6.57;;
11970;SDS011;6045;42.682;23.294;2023-06-22T08:26:44;10.32;;;6.68;;
11970;SDS011;6045;42.682;23.294;2023-06-22T08:29:11;7.30;;;6.60;;
11970;SDS011;6045;42.682;23.294;2023-06-22T08:31:38;6.85;;;6.07;;
11970;SDS011;6045;42.682;23.294;2023-06-22T08:34:04;7.40;;;6.70;;
11970;SDS011;6045;42.682;23.294;2023-06-22T08:36:31;8.05;;;6.72;;
11970;SDS011;6045;42.682;23.294;2023-06-22T08:39:00;6.88;;;6.22;;
11970;SDS011;6045;42.682;23.294;2023-06-22T08:41:29;9.38;;;7.20;;
11970;SDS011;6045;42.682;23.294;2023-06-22T08:43:56;8.07;;;6.20;;
11970;SDS011;6045;42.682;23.294;2023-06-22T08:46:22;8.95;;;6.85;;
11970;SDS011;6045;42.682;23.294;2023-06-22T08:48:55;7.82;;;6.75;;
11970;SDS011;6045;42.682;23.294;2023-06-22T08:51:22;7.45;;;6.55;;
11970;SDS011;6045;42.682;23.294;2023-06-22T08:53:48;7.22;;;6.05;;
11970;SDS011;6045;42.682;23.294;2023-06-22T08:56:15;6.88;;;6.22;;
11970;SDS011;6045;42.682;23.294;2023-06-22T08:58:43;7.38;;;6.68;;
11970;SDS011;6045;42.682;23.294;2023-06-22T09:01:10;8.95;;;6.13;;
11970;SDS011;6045;42.682;23.294;2023-06-22T09:03:37;7.68;;;6.43;;
11970;SDS011;6045;42.682;23.294;2023-06-22T09:06:04;6.18;;;5.57;;
11970;SDS011;6045;42.682;23.294;2023-06-22T09:08:30;6.53;;;5.03;;
11970;SDS011;6045;42.682;23.294;2023-06-22T09:10:58;5.85;;;5.20;;
11970;SDS011;6045;42.682;23.294;2023-06-22T09:13:25;7.15;;;5.35;;
11970;SDS011;6045;42.682;23.294;2023-06-22T09:15:53;6.22;;;5.10;;
11970;SDS011;6045;42.682;23.294;2023-06-22T09:18:20;6.43;;;5.60;;
11970;SDS011;6045;42.682;23.294;2023-06-22T09:20:47;5.90;;;5.30;;
11970;SDS011;6045;42.682;23.294;2023-06-22T09:23:14;6.07;;;5.22;;
11970;SDS011;6045;42.682;23.294;2023-06-22T09:25:41;5.75;;;5.07;;
11970;SDS011;6045;42.682;23.294;2023-06-22T09:28:08;5.72;;;5.13;;
11970;SDS011;6045;42.682;23.294;2023-06-22T09:30:35;5.93;;;4.60;;
11970;SDS011;6045;42.682;23.294;2023-06-22T09:33:03;5.80;;;4.82;;
11970;SDS011;6045;42.682;23.294;2023-06-22T09:35:30;6.22;;;5.30;;
11970;SDS011;6045;42.682;23.294;2023-06-22T09:37:57;6.15;;;5.20;;
11970;SDS011;6045;42.682;23.294;2023-06-22T09:40:23;6.07;;;5.10;;
11970;SDS011;6045;42.682;23.294;2023-06-22T09:42:50;5.82;;;5.30;;
11970;SDS011;6045;42.682;23.294;2023-06-22T09:45:17;5.40;;;4.45;;
11970;SDS011;6045;42.682;23.294;2023-06-22T09:47:43;6.43;;;5.70;;
11970;SDS011;6045;42.682;23.294;2023-06-22T09:50:12;5.63;;;5.03;;
11970;SDS011;6045;42.682;23.294;2023-06-22T09:52:38;6.25;;;5.03;;
11970;SDS011;6045;42.682;23.294;2023-06-22T09:55:09;6.22;;;5.70;;
11970;SDS011;6045;42.682;23.294;2023-06-22T09:57:36;6.05;;;5.20;;
11970;SDS011;6045;42.682;23.294;2023-06-22T10:00:03;6.32;;;5.25;;
11970;SDS011;6045;42.682;23.294;2023-06-22T10:02:34;6.15;;;5.45;;
11970;SDS011;6045;42.682;23.294;2023-06-22T10:05:00;5.85;;;5.20;;
11970;SDS011;6045;42.682;23.294;2023-06-22T10:07:29;7.35;;;5.88;;
11970;SDS011;6045;42.682;23.294;2023-06-22T10:09:55;7.10;;;5.22;;
11970;SDS011;6045;42.682;23.294;2023-06-22T10:12:22;8.35;;;5.88;;
11970;SDS011;6045;42.682;23.294;2023-06-22T10:14:49;7.35;;;6.00;;
11970;SDS011;6045;42.682;23.294;2023-06-22T10:17:15;8.48;;;6.25;;
11970;SDS011;6045;42.682;23.294;2023-06-22T10:19:42;6.53;;;5.85;;
11970;SDS011;6045;42.682;23.294;2023-06-22T10:22:09;6.25;;;5.55;;
11970;SDS011;6045;42.682;23.294;2023-06-22T10:24:37;6.13;;;5.45;;
11970;SDS011;6045;42.682;23.294;2023-06-22T10:27:09;6.53;;;5.93;;
11970;SDS011;6045;42.682;23.294;2023-06-22T10:29:36;5.60;;;5.00;;
11970;SDS011;6045;42.682;23.294;2023-06-22T10:32:03;6.55;;;5.40;;
11970;SDS011;6045;42.682;23.294;2023-06-22T10:34:30;6.72;;;5.47;;
11970;SDS011;6045;42.682;23.294;2023-06-22T10:36:57;7.03;;;5.72;;
11970;SDS011;6045;42.682;23.294;2023-06-22T10:39:24;7.15;;;5.90;;
11970;SDS011;6045;42.682;23.294;2023-06-22T10:41:52;7.10;;;6.00;;
11970;SDS011;6045;42.682;23.294;2023-06-22T10:44:19;6.97;;;6.28;;
11970;SDS011;6045;42.682;23.294;2023-06-22T10:46:46;6.57;;;5.90;;
11970;SDS011;6045;42.682;23.294;2023-06-22T10:49:13;6.07;;;5.47;;
11970;SDS011;6045;42.682;23.294;2023-06-22T10:51:40;6.40;;;5.80;;
11970;SDS011;6045;42.682;23.294;2023-06-22T10:54:06;6.22;;;5.45;;
11970;SDS011;6045;42.682;23.294;2023-06-22T10:56:33;7.35;;;5.78;;
11970;SDS011;6045;42.682;23.294;2023-06-22T10:59:01;6.47;;;5.88;;
11970;SDS011;6045;42.682;23.294;2023-06-22T11:01:28;6.25;;;5.30;;
11970;SDS011;6045;42.682;23.294;2023-06-22T11:03:56;6.22;;;5.50;;
11970;SDS011;6045;42.682;23.294;2023-06-22T11:06:23;5.97;;;5.38;;
11970;SDS011;6045;42.682;23.294;2023-06-22T11:08:50;6.80;;;5.68;;
11970;SDS011;6045;42.682;23.294;2023-06-22T11:11:17;6.30;;;5.57;;
11970;SDS011;6045;42.682;23.294;2023-06-22T11:13:43;8.60;;;6.60;;
11970;SDS011;6045;42.682;23.294;2023-06-22T11:16:12;6.55;;;5.90;;
11970;SDS011;6045;42.682;23.294;2023-06-22T11:18:38;6.80;;;6.20;;
11970;SDS011;6045;42.682;23.294;2023-06-22T11:21:05;8.05;;;6.07;;
11970;SDS011;6045;42.682;23.294;2023-06-22T11:23:32;6.53;;;5.93;;
11970;SDS011;6045;42.682;23.294;2023-06-22T11:25:58;7.90;;;6.00;;
11970;SDS011;6045;42.682;23.294;2023-06-22T11:28:25;6.95;;;6.03;;
11970;SDS011;6045;42.682;23.294;2023-06-22T11:30:52;7.50;;;6.55;;
11970;SDS011;6045;42.682;23.294;2023-06-22T11:33:20;7.50;;;6.47;;
11970;SDS011;6045;42.682;23.294;2023-06-22T11:35:47;6.38;;;5.88;;
11970;SDS011;6045;42.682;23.294;2023-06-22T11:38:14;6.30;;;5.57;;
11970;SDS011;6045;42.682;23.294;2023-06-22T11:40:40;6.80;;;5.72;;
11970;SDS011;6045;42.682;23.294;2023-06-22T11:43:07;8.60;;;5.75;;
11970;SDS011;6045;42.682;23.294;2023-06-22T11:45:34;6.85;;;6.15;;
11970;SDS011;6045;42.682;23.294;2023-06-22T11:48:01;9.00;;;6.05;;
11970;SDS011;6045;42.682;23.294;2023-06-22T11:50:29;6.28;;;5.38;;
11970;SDS011;6045;42.682;23.294;2023-06-22T11:52:59;7.43;;;6.40;;
11970;SDS011;6045;42.682;23.294;2023-06-22T11:55:26;8.30;;;5.57;;
11970;SDS011;6045;42.682;23.294;2023-06-22T11:57:53;8.02;;;6.55;;
11970;SDS011;6045;42.682;23.294;2023-06-22T12:00:21;7.15;;;5.82;;
11970;SDS011;6045;42.682;23.294;2023-06-22T12:02:49;8.65;;;6.25;;
11970;SDS011;6045;42.682;23.294;2023-06-22T12:05:17;7.38;;;5.30;;
11970;SDS011;6045;42.682;23.294;2023-06-22T12:07:46;7.72;;;6.05;;
11970;SDS011;6045;42.682;23.294;2023-06-22T12:10:13;6.32;;;5.45;;
11970;SDS011;6045;42.682;23.294;2023-06-22T12:12:40;8.23;;;5.60;;
11970;SDS011;6045;42.682;23.294;2023-06-22T12:15:08;6.97;;;6.05;;
11970;SDS011;6045;42.682;23.294;2023-06-22T12:17:36;6.93;;;5.88;;
11970;SDS011;6045;42.682;23.294;2023-06-22T12:20:03;6.78;;;6.00;;
11970;SDS011;6045;42.682;23.294;2023-06-22T12:22:31;8.38;;;6.13;;
11970;SDS011;6045;42.682;23.294;2023-06-22T12:24:59;7.53;;;6.05;;
11970;SDS011;6045;42.682;23.294;2023-06-22T12:27:26;8.90;;;6.78;;
11970;SDS011;6045;42.682;23.294;2023-06-22T12:29:55;8.50;;;6.30;;
11970;SDS011;6045;42.682;23.294;2023-06-22T12:32:21;10.95;;;6.50;;
11970;SDS011;6045;42.682;23.294;2023-06-22T12:34:48;6.82;;;5.72;;
11970;SDS011;6045;42.682;23.294;2023-06-22T12:37:15;8.05;;;6.00;;
11970;SDS011;6045;42.682;23.294;2023-06-22T12:39:42;7.22;;;5.68;;
11970;SDS011;6045;42.682;23.294;2023-06-22T12:42:10;6.63;;;5.38;;
11970;SDS011;6045;42.682;23.294;2023-06-22T12:44:37;7.63;;;5.60;;
11970;SDS011;6045;42.682;23.294;2023-06-22T12:47:05;8.07;;;4.93;;
11970;SDS011;6045;42.682;23.294;2023-06-22T12:49:33;6.03;;;4.80;;
11970;SDS011;6045;42.682;23.294;2023-06-22T12:52:00;8.88;;;4.60;;
11970;SDS011;6045;42.682;23.294;2023-06-22T12:54:27;10.35;;;4.95;;
11970;SDS011;6045;42.682;23.294;2023-06-22T12:56:54;7.82;;;5.00;;
11970;SDS011;6045;42.682;23.294;2023-06-22T12:59:23;5.75;;;4.55;;
11970;SDS011;6045;42.682;23.294;2023-06-22T13:01:49;8.25;;;4.60;;
11970;SDS011;6045;42.682;23.294;2023-06-22T13:04:16;6.82;;;4.70;;
11970;SDS011;6045;42.682;23.294;2023-06-22T13:06:43;6.68;;;4.50;;
11970;SDS011;6045;42.682;23.294;2023-06-22T13:09:13;7.57;;;4.63;;
11970;SDS011;6045;42.682;23.294;2023-06-22T13:11:40;5.95;;;4.35;;
11970;SDS011;6045;42.682;23.294;2023-06-22T13:14:07;9.95;;;5.47;;
11970;SDS011;6045;42.682;23.294;2023-06-22T13:16:35;6.45;;;4.25;;
11970;SDS011;6045;42.682;23.294;2023-06-22T13:19:01;7.93;;;4.93;;
11970;SDS011;6045;42.682;23.294;2023-06-22T13:21:29;7.57;;;5.57;;
11970;SDS011;6045;42.682;23.294;2023-06-22T13:23:56;7.18;;;5.85;;
11970;SDS011;6045;42.682;23.294;2023-06-22T13:26:24;6.75;;;5.60;;
11970;SDS011;6045;42.682;23.294;2023-06-22T13:28:51;9.65;;;6.07;;
11970;SDS011;6045;42.682;23.294;2023-06-22T13:31:18;7.63;;;5.45;;
11970;SDS011;6045;42.682;23.294;2023-06-22T13:33:47;6.97;;;5.75;;
11970;SDS011;6045;42.682;23.294;2023-06-22T13:36:14;9.60;;;5.55;;
11970;SDS011;6045;42.682;23.294;2023-06-22T13:38:42;8.20;;;6.30;;
11970;SDS011;6045;42.682;23.294;2023-06-22T13:41:09;7.85;;;5.72;;
11970;SDS011;6045;42.682;23.294;2023-06-22T13:43:35;8.95;;;6.05;;
11970;SDS011;6045;42.682;23.294;2023-06-22T13:46:02;8.77;;;6.00;;
11970;SDS011;6045;42.682;23.294;2023-06-22T13:48:29;8.30;;;5.65;;
11970;SDS011;6045;42.682;23.294;2023-06-22T13:50:57;7.93;;;5.65;;
11970;SDS011;6045;42.682;23.294;2023-06-22T13:53:24;7.53;;;5.70;;
11970;SDS011;6045;42.682;23.294;2023-06-22T13:55:51;7.53;;;5.80;;
11970;SDS011;6045;42.682;23.294;2023-06-22T13:58:17;7.80;;;6.07;;
11970;SDS011;6045;42.682;23.294;2023-06-22T14:00:45;8.75;;;5.43;;
11970;SDS011;6045;42.682;23.294;2023-06-22T14:03:12;8.32;;;5.85;;
11970;SDS011;6045;42.682;23.294;2023-06-22T14:05:41;7.70;;;6.25;;
11970;SDS011;6045;42.682;23.294;2023-06-22T14:08:09;6.65;;;5.18;;
11970;SDS011;6045;42.682;23.294;2023-06-22T14:10:36;8.07;;;5.47;;
11970;SDS011;6045;42.682;23.294;2023-06-22T14:13:02;7.00;;;5.90;;
11970;SDS011;6045;42.682;23.294;2023-06-22T14:15:34;7.03;;;5.88;;
11970;SDS011;6045;42.682;23.294;2023-06-22T14:18:00;7.05;;;5.68;;
11970;SDS011;6045;42.682;23.294;2023-06-22T14:20:27;6.60;;;5.50;;
11970;SDS011;6045;42.682;23.294;2023-06-22T14:22:54;7.35;;;5.93;;
11970;SDS011;6045;42.682;23.294;2023-06-22T14:25:22;7.93;;;5.78;;
11970;SDS011;6045;42.682;23.294;2023-06-22T14:27:49;7.13;;;4.80;;
11970;SDS011;6045;42.682;23.294;2023-06-22T14:30:15;8.25;;;5.68;;
11970;SDS011;6045;42.682;23.294;2023-06-22T14:32:43;9.38;;;5.75;;
11970;SDS011;6045;42.682;23.294;2023-06-22T14:35:10;5.93;;;4.85;;
11970;SDS011;6045;42.682;23.294;2023-06-22T14:37:37;6.40;;;5.18;;
11970;SDS011;6045;42.682;23.294;2023-06-22T14:40:04;7.90;;;5.28;;
11970;SDS011;6045;42.682;23.294;2023-06-22T14:42:32;8.93;;;5.68;;
11970;SDS011;6045;42.682;23.294;2023-06-22T14:44:59;8.57;;;5.63;;
11970;SDS011;6045;42.682;23.294;2023-06-22T14:47:26;8.00;;;6.15;;